Time;durP1;ratioP1;P1;durP2;ratioP2;P2;SDS_P1;SDS_P2;PMS_P1;PMS_P2;Temp;Humidity;BMP_temperature;BMP_pressure;BME280_temperature;BME280_humidity;BME280_pressure;Samples;Min_cycle;Max_cycle;Signal;HPM_P1;HPM_P2
2024/04/05 00:02:02;;;;;;;1.35;0.70;;;;;;;;;;5071238;28;20056;-61
2024/04/05 00:04:30;;;;;;;1.67;0.80;;;;;;;;;;5075808;28;20511;-59
2024/04/05 00:06:57;;;;;;;1.45;0.77;;;;;;;;;;5080428;28;20063;-62
2024/04/05 00:09:23;;;;;;;0.70;0.65;;;;;;;;;;5070439;28;20104;-59
2024/04/05 00:11:51;;;;;;;0.90;0.90;;;;;;;;;;5079515;28;20067;-59
2024/04/05 00:14:18;;;;;;;1.80;0.93;;;;;;;;;;5080020;28;20053;-59
2024/04/05 00:16:45;;;;;;;0.85;0.80;;;;;;;;;;5067155;28;20461;-62
2024/04/05 00:19:11;;;;;;;1.08;0.73;;;;;;;;;;5075403;28;20089;-63
2024/04/05 00:21:40;;;;;;;0.50;0.50;;;;;;;;;;5072323;28;20497;-58
2024/04/05 00:24:07;;;;;;;1.05;0.70;;;;;;;;;;5075780;28;20036;-59
2024/04/05 00:26:34;;;;;;;0.77;0.77;;;;;;;;;;5076684;28;20515;-59
2024/04/05 00:29:01;;;;;;;0.60;0.60;;;;;;;;;;5076732;28;20060;-60
2024/04/05 00:31:28;;;;;;;0.90;0.80;;;;;;;;;;5073043;28;20055;-59
2024/04/05 00:33:55;;;;;;;1.98;0.70;;;;;;;;;;5073559;28;20052;-59
2024/04/05 00:36:22;;;;;;;1.95;0.70;;;;;;;;;;5069385;28;20075;-59
2024/04/05 00:38:52;;;;;;;1.25;0.80;;;;;;;;;;5076491;28;20052;-59
2024/04/05 00:41:19;;;;;;;2.08;0.80;;;;;;;;;;5075495;28;20394;-59
2024/04/05 00:43:45;;;;;;;0.73;0.68;;;;;;;;;;5083359;28;20101;-62
2024/04/05 00:46:13;;;;;;;1.15;0.70;;;;;;;;;;5068317;28;20489;-60
2024/04/05 00:48:39;;;;;;;1.35;0.70;;;;;;;;;;5066382;28;20074;-59
2024/04/05 00:51:07;;;;;;;1.55;0.80;;;;;;;;;;5081399;28;20418;-60
2024/04/05 00:53:34;;;;;;;1.80;0.70;;;;;;;;;;5075301;28;20060;-58
2024/04/05 00:56:02;;;;;;;1.67;0.80;;;;;;;;;;5055907;28;20057;-61
2024/04/05 00:58:29;;;;;;;0.65;0.60;;;;;;;;;;5075499;28;20055;-59
2024/04/05 01:00:57;;;;;;;1.13;0.70;;;;;;;;;;5074508;28;20083;-59
2024/04/05 01:03:23;;;;;;;0.85;0.63;;;;;;;;;;5075891;28;20055;-61
2024/04/05 01:05:51;;;;;;;2.05;0.75;;;;;;;;;;5070829;27;20417;-59
2024/04/05 01:08:17;;;;;;;0.90;0.63;;;;;;;;;;5074714;28;20044;-60
2024/04/05 01:10:45;;;;;;;0.88;0.70;;;;;;;;;;5064454;28;20078;-61
2024/04/05 01:13:13;;;;;;;0.98;0.88;;;;;;;;;;5069017;28;20056;-60
2024/04/05 01:15:41;;;;;;;1.02;0.80;;;;;;;;;;5070057;28;20548;-60
2024/04/05 01:18:08;;;;;;;1.30;0.80;;;;;;;;;;5073716;28;20405;-62
2024/04/05 01:20:36;;;;;;;0.90;0.63;;;;;;;;;;5071152;28;20044;-60
2024/04/05 01:23:03;;;;;;;1.25;0.75;;;;;;;;;;5074143;28;20500;-62
2024/04/05 01:25:32;;;;;;;1.85;0.75;;;;;;;;;;5069125;28;20101;-62
2024/04/05 01:28:00;;;;;;;1.45;0.80;;;;;;;;;;5078401;28;20086;-59
2024/04/05 01:30:27;;;;;;;0.73;0.73;;;;;;;;;;5069856;28;20406;-62
2024/04/05 01:32:54;;;;;;;1.17;0.68;;;;;;;;;;5068739;28;20428;-60
2024/04/05 01:35:22;;;;;;;1.95;0.82;;;;;;;;;;5075727;28;20056;-62
2024/04/05 01:37:48;;;;;;;0.85;0.70;;;;;;;;;;5069474;28;20049;-62
2024/04/05 01:40:16;;;;;;;1.95;0.77;;;;;;;;;;5068702;28;20052;-60
2024/04/05 01:42:44;;;;;;;0.70;0.70;;;;;;;;;;5073426;28;20049;-59
2024/04/05 01:45:11;;;;;;;1.75;0.93;;;;;;;;;;5069233;28;20570;-62
2024/04/05 01:47:38;;;;;;;0.70;0.70;;;;;;;;;;5070678;28;20493;-60
2024/04/05 01:50:06;;;;;;;2.08;0.70;;;;;;;;;;5067898;28;20060;-60
2024/04/05 01:52:32;;;;;;;1.73;0.70;;;;;;;;;;5075636;28;20055;-60
2024/04/05 01:55:00;;;;;;;0.82;0.80;;;;;;;;;;5070163;28;20493;-59
2024/04/05 01:57:26;;;;;;;0.93;0.73;;;;;;;;;;5068067;28;20052;-65
2024/04/05 01:59:56;;;;;;;2.88;0.88;;;;;;;;;;5068618;28;20117;-64
2024/04/05 02:02:22;;;;;;;1.02;0.80;;;;;;;;;;5068608;28;20052;-60
2024/04/05 02:04:52;;;;;;;1.80;0.70;;;;;;;;;;5078810;28;20071;-62
2024/04/05 02:07:20;;;;;;;2.42;0.90;;;;;;;;;;5066399;28;20056;-59
2024/04/05 02:09:48;;;;;;;2.20;0.75;;;;;;;;;;5068858;28;20063;-60
2024/04/05 02:12:16;;;;;;;1.58;0.80;;;;;;;;;;5071859;28;20048;-59
2024/04/05 02:14:43;;;;;;;1.50;0.80;;;;;;;;;;5074870;28;20048;-62
2024/04/05 02:17:11;;;;;;;2.55;1.17;;;;;;;;;;5075821;28;20090;-63
2024/04/05 02:19:39;;;;;;;2.90;0.90;;;;;;;;;;5072916;28;20055;-59
2024/04/05 02:22:05;;;;;;;0.70;0.70;;;;;;;;;;5073148;28;20056;-61
2024/04/05 02:24:33;;;;;;;2.15;0.82;;;;;;;;;;5069870;28;20056;-59
2024/04/05 02:26:59;;;;;;;1.35;0.80;;;;;;;;;;5068750;28;20047;-60
2024/04/05 02:29:27;;;;;;;1.02;0.80;;;;;;;;;;5068007;28;20060;-62
2024/04/05 02:31:53;;;;;;;0.68;0.60;;;;;;;;;;5068675;28;20109;-63
2024/04/05 02:34:22;;;;;;;1.85;1.02;;;;;;;;;;5070531;28;20052;-59
2024/04/05 02:36:50;;;;;;;1.55;0.93;;;;;;;;;;5067669;28;20049;-59
2024/04/05 02:39:17;;;;;;;1.27;0.85;;;;;;;;;;5067897;28;20049;-60
2024/04/05 02:41:45;;;;;;;1.08;0.85;;;;;;;;;;5077112;28;20063;-61
2024/04/05 02:44:13;;;;;;;1.50;0.85;;;;;;;;;;5078403;28;20602;-61
2024/04/05 02:46:39;;;;;;;1.42;0.88;;;;;;;;;;5067369;28;20297;-59
2024/04/05 02:49:07;;;;;;;1.95;0.98;;;;;;;;;;5075678;28;20072;-62
2024/04/05 02:51:35;;;;;;;2.45;0.90;;;;;;;;;;5076786;28;20051;-64
2024/04/05 02:54:02;;;;;;;0.70;0.70;;;;;;;;;;5070817;28;20052;-61
2024/04/05 02:56:29;;;;;;;0.77;0.70;;;;;;;;;;5071806;28;20472;-61
2024/04/05 02:58:57;;;;;;;0.75;0.70;;;;;;;;;;5067567;28;20060;-59
2024/04/05 03:01:23;;;;;;;0.70;0.70;;;;;;;;;;5068376;28;20056;-62
2024/04/05 03:03:51;;;;;;;0.77;0.77;;;;;;;;;;5066198;28;20041;-59
2024/04/05 03:06:18;;;;;;;3.15;0.80;;;;;;;;;;5065237;28;20036;-60
2024/04/05 03:08:46;;;;;;;1.58;0.80;;;;;;;;;;5074597;28;20044;-64
2024/04/05 03:11:13;;;;;;;1.63;1.05;;;;;;;;;;5069415;28;20063;-64
2024/04/05 03:13:41;;;;;;;1.98;0.85;;;;;;;;;;5069734;28;20048;-60
2024/04/05 03:16:07;;;;;;;2.25;0.90;;;;;;;;;;5067672;28;20461;-59
2024/04/05 03:18:35;;;;;;;0.63;0.63;;;;;;;;;;5068378;28;20056;-61
2024/04/05 03:21:01;;;;;;;1.65;1.02;;;;;;;;;;5068432;28;20048;-60
2024/04/05 03:23:28;;;;;;;1.83;1.00;;;;;;;;;;5067000;28;20489;-60
2024/04/05 03:25:56;;;;;;;1.02;0.95;;;;;;;;;;5059654;28;20045;-68
2024/04/05 03:28:24;;;;;;;0.90;0.90;;;;;;;;;;5076710;28;20040;-59
2024/04/05 03:30:50;;;;;;;2.15;0.80;;;;;;;;;;5073714;28;20063;-59
2024/04/05 03:33:17;;;;;;;0.82;0.82;;;;;;;;;;5074288;28;20060;-61
2024/04/05 03:35:44;;;;;;;0.80;0.80;;;;;;;;;;5069353;28;20052;-60
2024/04/05 03:38:11;;;;;;;1.40;0.80;;;;;;;;;;5067116;28;20044;-59
2024/04/05 03:40:39;;;;;;;3.67;0.85;;;;;;;;;;5067191;28;20485;-59
2024/04/05 03:43:08;;;;;;;1.17;0.80;;;;;;;;;;5071295;28;20424;-58
2024/04/05 03:45:36;;;;;;;2.63;1.00;;;;;;;;;;5067168;28;20041;-63
2024/04/05 03:48:03;;;;;;;1.73;0.82;;;;;;;;;;5066379;28;20040;-59
2024/04/05 03:50:30;;;;;;;1.42;0.98;;;;;;;;;;5067417;28;20424;-62
2024/04/05 03:52:57;;;;;;;0.70;0.70;;;;;;;;;;5074178;28;20363;-59
2024/04/05 03:55:24;;;;;;;0.98;0.90;;;;;;;;;;5059248;28;20052;-60
2024/04/05 03:57:52;;;;;;;0.63;0.63;;;;;;;;;;5066943;28;20056;-60
2024/04/05 04:00:21;;;;;;;0.90;0.82;;;;;;;;;;5063920;28;20052;-65
2024/04/05 04:02:50;;;;;;;1.48;0.90;;;;;;;;;;5066704;28;20056;-59
2024/04/05 04:05:17;;;;;;;1.35;1.00;;;;;;;;;;5080402;28;20060;-58
2024/04/05 04:07:44;;;;;;;1.45;0.90;;;;;;;;;;5071616;28;20045;-59
2024/04/05 04:10:11;;;;;;;3.38;0.88;;;;;;;;;;5067871;28;20501;-59
2024/04/05 04:12:39;;;;;;;0.98;0.80;;;;;;;;;;5068844;28;20048;-62
2024/04/05 04:15:06;;;;;;;1.92;0.80;;;;;;;;;;5076378;28;20056;-62
2024/04/05 04:17:35;;;;;;;0.60;0.60;;;;;;;;;;5075840;28;20114;-64
2024/04/05 04:20:04;;;;;;;1.00;0.90;;;;;;;;;;5070975;28;20410;-59
2024/04/05 04:22:32;;;;;;;2.45;1.00;;;;;;;;;;5072331;28;20048;-59
2024/04/05 04:24:59;;;;;;;1.98;0.82;;;;;;;;;;5070919;28;20413;-60
2024/04/05 04:27:27;;;;;;;1.23;0.80;;;;;;;;;;5069472;28;20053;-60
2024/04/05 04:29:54;;;;;;;1.15;0.80;;;;;;;;;;5070982;28;20361;-61
2024/04/05 04:32:22;;;;;;;1.35;1.10;;;;;;;;;;5076985;28;20049;-59
2024/04/05 04:34:49;;;;;;;0.98;0.90;;;;;;;;;;5077885;28;20052;-59
2024/04/05 04:37:17;;;;;;;1.23;0.80;;;;;;;;;;5078118;28;20051;-60
2024/04/05 04:39:46;;;;;;;1.40;0.68;;;;;;;;;;5070077;28;20571;-68
2024/04/05 04:42:13;;;;;;;2.35;0.88;;;;;;;;;;5076800;28;20396;-62
2024/04/05 04:44:40;;;;;;;1.35;0.90;;;;;;;;;;5076852;28;20444;-59
2024/04/05 04:47:07;;;;;;;1.00;0.88;;;;;;;;;;5070221;28;20044;-62
2024/04/05 04:49:34;;;;;;;1.27;0.93;;;;;;;;;;5070911;28;20056;-63
2024/04/05 04:52:02;;;;;;;3.55;1.10;;;;;;;;;;5077178;28;20060;-61
2024/04/05 04:54:29;;;;;;;1.55;0.98;;;;;;;;;;5064352;28;20062;-60
2024/04/05 04:56:56;;;;;;;1.50;0.90;;;;;;;;;;5077967;28;20057;-60
2024/04/05 04:59:28;;;;;;;2.05;1.02;;;;;;;;;;5070220;28;20049;-60
2024/04/05 05:01:55;;;;;;;1.13;0.70;;;;;;;;;;5070787;28;20048;-59
2024/04/05 05:04:22;;;;;;;1.08;0.90;;;;;;;;;;5069222;28;20056;-63
2024/04/05 05:06:50;;;;;;;0.90;0.80;;;;;;;;;;5082386;28;20044;-59
2024/04/05 05:09:18;;;;;;;1.50;1.00;;;;;;;;;;5073042;28;20056;-60
2024/04/05 05:11:46;;;;;;;1.23;1.10;;;;;;;;;;5071650;28;20122;-59
2024/04/05 05:14:14;;;;;;;1.05;0.95;;;;;;;;;;5070119;28;20059;-63
2024/04/05 05:16:41;;;;;;;0.70;0.70;;;;;;;;;;5069367;28;20053;-60
2024/04/05 05:19:09;;;;;;;1.27;0.90;;;;;;;;;;5067909;28;20433;-60
2024/04/05 05:21:37;;;;;;;0.70;0.70;;;;;;;;;;5072349;28;20264;-60
2024/04/05 05:24:04;;;;;;;0.85;0.80;;;;;;;;;;5058970;28;20086;-59
2024/04/05 05:26:33;;;;;;;1.05;0.80;;;;;;;;;;5078397;28;20040;-59
2024/04/05 05:28:59;;;;;;;0.93;0.85;;;;;;;;;;5070530;28;20052;-61
2024/04/05 05:31:27;;;;;;;1.20;1.10;;;;;;;;;;5075131;28;20056;-61
2024/04/05 05:33:53;;;;;;;1.23;0.90;;;;;;;;;;5068296;28;20537;-62
2024/04/05 05:36:21;;;;;;;2.20;1.08;;;;;;;;;;5072234;28;20606;-59
2024/04/05 05:38:47;;;;;;;2.65;0.88;;;;;;;;;;5070681;28;20117;-59
2024/04/05 05:41:15;;;;;;;2.00;0.77;;;;;;;;;;5079328;28;20524;-63
2024/04/05 05:43:42;;;;;;;1.30;0.85;;;;;;;;;;5071486;28;20049;-61
2024/04/05 05:46:10;;;;;;;1.35;0.90;;;;;;;;;;5073884;28;20040;-60
2024/04/05 05:48:36;;;;;;;1.90;1.00;;;;;;;;;;5078726;28;20653;-59
2024/04/05 05:51:04;;;;;;;0.80;0.80;;;;;;;;;;5071160;28;20049;-59
2024/04/05 05:53:30;;;;;;;1.13;0.90;;;;;;;;;;5075209;28;20504;-60
2024/04/05 05:55:57;;;;;;;2.80;1.10;;;;;;;;;;5068699;28;20060;-62
2024/04/05 05:58:24;;;;;;;1.38;1.05;;;;;;;;;;5074348;28;20622;-64
2024/04/05 06:00:53;;;;;;;2.25;0.80;;;;;;;;;;5075274;28;20037;-61
2024/04/05 06:03:19;;;;;;;1.17;1.02;;;;;;;;;;5067773;28;20048;-59
2024/04/05 06:05:50;;;;;;;1.67;1.08;;;;;;;;;;5067859;27;20067;-65
2024/04/05 06:08:17;;;;;;;2.50;1.13;;;;;;;;;;5062362;28;20053;-62
2024/04/05 06:10:45;;;;;;;0.82;0.82;;;;;;;;;;5076271;28;20071;-63
2024/04/05 06:13:11;;;;;;;2.28;1.13;;;;;;;;;;5069813;28;20044;-61
2024/04/05 06:15:39;;;;;;;4.65;1.40;;;;;;;;;;5062759;28;20060;-62
2024/04/05 06:18:07;;;;;;;1.20;1.10;;;;;;;;;;5066425;28;20045;-62
2024/04/05 06:20:34;;;;;;;4.15;0.90;;;;;;;;;;5065821;28;20051;-61
2024/04/05 06:23:01;;;;;;;0.70;0.70;;;;;;;;;;5066676;28;20052;-64
2024/04/05 06:25:28;;;;;;;1.00;0.80;;;;;;;;;;5085540;28;20137;-60
2024/04/05 06:27:55;;;;;;;1.05;0.70;;;;;;;;;;5067184;28;20040;-60
2024/04/05 06:30:23;;;;;;;0.70;0.70;;;;;;;;;;5072801;28;20059;-59
2024/04/05 06:32:50;;;;;;;1.65;1.10;;;;;;;;;;5064754;28;20417;-59
2024/04/05 06:35:18;;;;;;;1.02;0.90;;;;;;;;;;5066683;28;20068;-65
2024/04/05 06:37:45;;;;;;;1.95;0.82;;;;;;;;;;5065545;28;20113;-60
2024/04/05 06:40:14;;;;;;;1.70;0.80;;;;;;;;;;5065626;28;20416;-61
2024/04/05 06:42:40;;;;;;;3.05;0.90;;;;;;;;;;5066954;28;20094;-59
2024/04/05 06:45:08;;;;;;;2.30;0.98;;;;;;;;;;5069361;28;20390;-60
2024/04/05 06:47:35;;;;;;;2.72;0.77;;;;;;;;;;5073352;28;20335;-62
2024/04/05 06:50:04;;;;;;;1.05;0.90;;;;;;;;;;5067446;28;20492;-63
2024/04/05 06:52:31;;;;;;;0.95;0.70;;;;;;;;;;5062677;28;20400;-62
2024/04/05 06:54:59;;;;;;;0.77;0.70;;;;;;;;;;5064981;28;20053;-61
2024/04/05 06:57:25;;;;;;;1.48;0.80;;;;;;;;;;5066658;28;20048;-63
2024/04/05 06:59:53;;;;;;;1.00;0.80;;;;;;;;;;5065794;28;20052;-59
2024/04/05 07:02:21;;;;;;;3.03;0.98;;;;;;;;;;5064081;28;20444;-60
2024/04/05 07:04:48;;;;;;;0.80;0.60;;;;;;;;;;5065530;28;20499;-64
2024/04/05 07:07:14;;;;;;;1.05;0.60;;;;;;;;;;5065559;28;20052;-63
2024/04/05 07:09:45;;;;;;;1.08;0.63;;;;;;;;;;5065987;28;20057;-60
2024/04/05 07:12:12;;;;;;;2.45;0.73;;;;;;;;;;5063721;28;20044;-61
2024/04/05 07:14:39;;;;;;;1.52;0.70;;;;;;;;;;5065943;28;20056;-66
2024/04/05 07:17:08;;;;;;;2.63;0.80;;;;;;;;;;5065227;28;20481;-62
2024/04/05 07:19:35;;;;;;;1.05;0.75;;;;;;;;;;5064143;28;20523;-65
2024/04/05 07:22:01;;;;;;;1.45;1.00;;;;;;;;;;5063358;28;20052;-63
2024/04/05 07:24:29;;;;;;;1.63;0.80;;;;;;;;;;5065737;28;20497;-61
2024/04/05 07:26:57;;;;;;;0.80;0.70;;;;;;;;;;5064824;28;20498;-61
2024/04/05 07:29:24;;;;;;;2.38;0.82;;;;;;;;;;5066594;28;20056;-65
2024/04/05 07:31:50;;;;;;;1.73;0.73;;;;;;;;;;5065471;28;20067;-63
2024/04/05 07:34:18;;;;;;;0.90;0.70;;;;;;;;;;5067370;28;20149;-61
2024/04/05 07:36:44;;;;;;;1.00;0.73;;;;;;;;;;5067501;28;20047;-60
2024/04/05 07:39:13;;;;;;;2.08;0.90;;;;;;;;;;5067533;28;20048;-59
2024/04/05 07:41:40;;;;;;;1.90;0.70;;;;;;;;;;5067215;28;20045;-64
2024/04/05 07:44:08;;;;;;;1.30;0.80;;;;;;;;;;5076353;28;20417;-61
2024/04/05 07:46:35;;;;;;;1.17;0.70;;;;;;;;;;5075734;28;20061;-63
2024/04/05 07:49:02;;;;;;;0.70;0.70;;;;;;;;;;5082930;28;20047;-60
2024/04/05 07:51:29;;;;;;;1.38;0.68;;;;;;;;;;5078778;28;20059;-60
2024/04/05 07:53:56;;;;;;;0.80;0.60;;;;;;;;;;5074731;28;20137;-63
2024/04/05 07:56:23;;;;;;;1.40;0.70;;;;;;;;;;5080437;28;20044;-61
2024/04/05 07:58:50;;;;;;;1.25;0.75;;;;;;;;;;5079368;28;20521;-60
2024/04/05 08:01:18;;;;;;;1.02;0.50;;;;;;;;;;5079943;28;20118;-60
2024/04/05 08:03:46;;;;;;;1.15;0.65;;;;;;;;;;5078240;28;20056;-60
2024/04/05 08:06:12;;;;;;;1.48;0.60;;;;;;;;;;5082468;28;20409;-60
2024/04/05 08:08:40;;;;;;;1.15;0.60;;;;;;;;;;5075494;28;20497;-62
2024/04/05 08:11:07;;;;;;;0.60;0.60;;;;;;;;;;5075617;28;20060;-61
2024/04/05 08:13:34;;;;;;;3.00;0.63;;;;;;;;;;5077135;28;20142;-64
2024/04/05 08:16:01;;;;;;;7.22;0.70;;;;;;;;;;5080733;28;20090;-63
2024/04/05 08:18:30;;;;;;;1.63;0.65;;;;;;;;;;5082286;28;20048;-60
2024/04/05 08:20:56;;;;;;;1.52;0.50;;;;;;;;;;5077291;28;20056;-63
2024/04/05 08:23:24;;;;;;;1.67;0.70;;;;;;;;;;5082039;28;20501;-62
2024/04/05 08:25:50;;;;;;;0.60;0.50;;;;;;;;;;5073832;28;20504;-62
2024/04/05 08:28:18;;;;;;;1.40;0.70;;;;;;;;;;5083815;28;20130;-60
2024/04/05 08:30:45;;;;;;;0.70;0.50;;;;;;;;;;5079866;28;20064;-60
2024/04/05 08:33:12;;;;;;;1.80;0.60;;;;;;;;;;5077603;28;20056;-62
2024/04/05 08:35:40;;;;;;;0.50;0.50;;;;;;;;;;5077216;28;20048;-62
2024/04/05 08:38:10;;;;;;;0.98;0.70;;;;;;;;;;5079328;28;20102;-64
2024/04/05 08:40:39;;;;;;;0.77;0.60;;;;;;;;;;5076801;28;20386;-65
2024/04/05 08:43:09;;;;;;;2.08;0.60;;;;;;;;;;5087848;28;20061;-61
2024/04/05 08:45:35;;;;;;;1.80;0.80;;;;;;;;;;5075678;28;20044;-60
2024/04/05 08:48:05;;;;;;;0.80;0.45;;;;;;;;;;5078452;28;20114;-62
2024/04/05 08:50:34;;;;;;;1.20;0.50;;;;;;;;;;5077723;28;20048;-62
2024/04/05 08:53:02;;;;;;;1.42;0.52;;;;;;;;;;5075978;28;20040;-59
2024/04/05 08:55:29;;;;;;;1.30;0.70;;;;;;;;;;5079140;28;20044;-60
2024/04/05 08:57:58;;;;;;;1.67;0.60;;;;;;;;;;5077207;28;20048;-59
2024/04/05 09:00:25;;;;;;;0.40;0.40;;;;;;;;;;5071472;28;20045;-60
2024/04/05 09:02:53;;;;;;;1.23;0.50;;;;;;;;;;5077679;28;20060;-60
2024/04/05 09:05:22;;;;;;;1.25;0.60;;;;;;;;;;5074870;28;20057;-59
2024/04/05 09:07:50;;;;;;;0.50;0.50;;;;;;;;;;5078764;28;20049;-59
2024/04/05 09:10:18;;;;;;;0.93;0.60;;;;;;;;;;5079397;28;20101;-60
2024/04/05 09:12:49;;;;;;;0.88;0.57;;;;;;;;;;5076675;28;20067;-64
2024/04/05 09:15:19;;;;;;;0.88;0.50;;;;;;;;;;5084403;28;20047;-61
2024/04/05 09:17:47;;;;;;;0.60;0.50;;;;;;;;;;5074960;28;20051;-60
2024/04/05 09:20:19;;;;;;;1.20;0.70;;;;;;;;;;5082848;28;20105;-60
2024/04/05 09:22:48;;;;;;;1.10;0.65;;;;;;;;;;5080406;28;20057;-61
2024/04/05 09:25:16;;;;;;;1.08;0.55;;;;;;;;;;5081561;28;20047;-62
2024/04/05 09:27:46;;;;;;;1.00;0.50;;;;;;;;;;5078144;28;20045;-64
2024/04/05 09:30:14;;;;;;;1.75;0.70;;;;;;;;;;5072720;28;20048;-60
2024/04/05 09:32:42;;;;;;;0.95;0.60;;;;;;;;;;5078825;28;20073;-60
2024/04/05 09:35:11;;;;;;;1.75;0.50;;;;;;;;;;5082188;28;20063;-60
2024/04/05 09:37:39;;;;;;;1.00;0.43;;;;;;;;;;5082240;28;20040;-63
2024/04/05 09:40:10;;;;;;;0.40;0.40;;;;;;;;;;5070188;28;20052;-61
2024/04/05 09:42:38;;;;;;;0.43;0.43;;;;;;;;;;5072628;28;20501;-62
2024/04/05 09:45:07;;;;;;;1.90;0.50;;;;;;;;;;5074559;28;20051;-60
2024/04/05 09:47:34;;;;;;;0.75;0.45;;;;;;;;;;5095807;27;20146;-63
2024/04/05 09:50:01;;;;;;;1.52;0.40;;;;;;;;;;5075012;28;20055;-60
2024/04/05 09:52:30;;;;;;;0.95;0.50;;;;;;;;;;5075677;28;20138;-62
2024/04/05 09:54:59;;;;;;;0.77;0.60;;;;;;;;;;5070350;28;20162;-63
2024/04/05 09:57:28;;;;;;;1.25;0.55;;;;;;;;;;5069192;28;20045;-61
2024/04/05 09:59:55;;;;;;;1.48;0.55;;;;;;;;;;5073326;28;20098;-61
2024/04/05 10:02:24;;;;;;;0.80;0.40;;;;;;;;;;5090165;28;20052;-66
2024/04/05 10:04:50;;;;;;;0.90;0.50;;;;;;;;;;5069940;28;20105;-64
2024/04/05 10:07:26;;;;;;;1.65;0.50;;;;;;;;;;5074243;28;20078;-65
2024/04/05 10:09:52;;;;;;;0.95;0.60;;;;;;;;;;5066674;28;20069;-60
2024/04/05 10:12:22;;;;;;;0.57;0.40;;;;;;;;;;5069510;28;20052;-64
2024/04/05 10:14:52;;;;;;;1.25;0.65;;;;;;;;;;5077738;28;20055;-64
2024/04/05 10:17:27;;;;;;;0.52;0.40;;;;;;;;;;5064828;28;20059;-63
2024/04/05 10:20:05;;;;;;;0.75;0.55;;;;;;;;;;5083046;28;20045;-64
2024/04/05 10:22:32;;;;;;;1.67;0.60;;;;;;;;;;5067888;28;20041;-61
2024/04/05 10:24:59;;;;;;;1.30;0.80;;;;;;;;;;5073510;28;20419;-68
2024/04/05 10:27:27;;;;;;;3.80;0.57;;;;;;;;;;5067573;28;20052;-64
2024/04/05 10:29:58;;;;;;;1.20;0.50;;;;;;;;;;5067819;28;20048;-71
2024/04/05 10:32:26;;;;;;;2.38;0.52;;;;;;;;;;5076254;28;20093;-62
2024/04/05 10:34:52;;;;;;;0.95;0.50;;;;;;;;;;5076777;28;20052;-62
2024/04/05 10:37:21;;;;;;;1.83;0.60;;;;;;;;;;5067028;28;20442;-62
2024/04/05 10:39:48;;;;;;;0.85;0.50;;;;;;;;;;5070500;28;20516;-61
2024/04/05 10:42:24;;;;;;;0.75;0.60;;;;;;;;;;5071999;28;20067;-63
2024/04/05 10:44:57;;;;;;;0.77;0.50;;;;;;;;;;5072856;28;20452;-61
2024/04/05 10:47:25;;;;;;;0.40;0.40;;;;;;;;;;5070141;28;20048;-65
2024/04/05 10:49:58;;;;;;;1.02;0.40;;;;;;;;;;5070346;28;20048;-62
2024/04/05 10:52:27;;;;;;;0.50;0.45;;;;;;;;;;5067887;28;20056;-63
2024/04/05 10:54:53;;;;;;;1.27;0.50;;;;;;;;;;5076875;28;20060;-67
2024/04/05 10:57:21;;;;;;;0.50;0.40;;;;;;;;;;5067066;28;20574;-62
2024/04/05 10:59:48;;;;;;;1.13;0.52;;;;;;;;;;5077723;28;20048;-62
2024/04/05 11:02:15;;;;;;;3.63;0.50;;;;;;;;;;5073462;28;20051;-62
2024/04/05 11:04:42;;;;;;;0.30;0.30;;;;;;;;;;5067048;28;20056;-61
2024/04/05 11:07:09;;;;;;;0.40;0.35;;;;;;;;;;5078979;28;20500;-63
2024/04/05 11:09:42;;;;;;;0.40;0.40;;;;;;;;;;5069747;28;20437;-62
2024/04/05 11:12:12;;;;;;;0.85;0.60;;;;;;;;;;5066995;28;20052;-62
2024/04/05 11:14:38;;;;;;;0.45;0.38;;;;;;;;;;5072885;28;20063;-64
2024/04/05 11:17:06;;;;;;;0.90;0.45;;;;;;;;;;5069797;28;20041;-66
2024/04/05 11:19:33;;;;;;;1.10;0.50;;;;;;;;;;5069204;28;20040;-66
2024/04/05 11:22:04;;;;;;;1.45;0.63;;;;;;;;;;5072067;28;20424;-62
2024/04/05 11:24:30;;;;;;;0.30;0.30;;;;;;;;;;5078116;28;20051;-62
2024/04/05 11:26:59;;;;;;;1.35;0.50;;;;;;;;;;5077581;28;20446;-65
2024/04/05 11:29:26;;;;;;;0.68;0.50;;;;;;;;;;5077143;28;20122;-63
2024/04/05 11:31:53;;;;;;;1.45;0.40;;;;;;;;;;5073746;28;20056;-62
2024/04/05 11:34:19;;;;;;;3.33;0.60;;;;;;;;;;5085730;28;20048;-62
2024/04/05 11:36:47;;;;;;;2.05;0.50;;;;;;;;;;5072908;28;20052;-62
2024/04/05 11:39:14;;;;;;;0.75;0.30;;;;;;;;;;5076636;28;20056;-63
2024/04/05 11:41:42;;;;;;;1.35;0.30;;;;;;;;;;5077181;28;20475;-64
2024/04/05 11:44:10;;;;;;;0.80;0.40;;;;;;;;;;5076029;28;20392;-66
2024/04/05 11:46:38;;;;;;;0.40;0.38;;;;;;;;;;5075332;28;20044;-63
2024/04/05 11:49:04;;;;;;;0.30;0.30;;;;;;;;;;5075501;28;20059;-63
2024/04/05 11:51:31;;;;;;;0.82;0.40;;;;;;;;;;5082389;28;20121;-62
2024/04/05 11:53:58;;;;;;;0.45;0.30;;;;;;;;;;5081937;28;20052;-61
2024/04/05 11:56:25;;;;;;;1.98;0.40;;;;;;;;;;5075217;28;20049;-64
2024/04/05 11:58:52;;;;;;;0.68;0.50;;;;;;;;;;5074764;28;20056;-65
2024/04/05 12:01:21;;;;;;;0.77;0.40;;;;;;;;;;5074313;28;20048;-64
2024/04/05 12:03:47;;;;;;;0.30;0.30;;;;;;;;;;5077423;28;20418;-62
2024/04/05 12:06:15;;;;;;;0.30;0.30;;;;;;;;;;5072196;28;20052;-61
2024/04/05 12:08:42;;;;;;;0.40;0.40;;;;;;;;;;5084612;28;20063;-65
2024/04/05 12:11:09;;;;;;;0.93;0.40;;;;;;;;;;5065483;28;20056;-65
2024/04/05 12:13:36;;;;;;;0.30;0.30;;;;;;;;;;5063201;28;20446;-67
2024/04/05 12:16:04;;;;;;;0.52;0.40;;;;;;;;;;5075819;27;20040;-69
2024/04/05 12:18:32;;;;;;;0.68;0.40;;;;;;;;;;5073701;28;20060;-62
2024/04/05 12:21:00;;;;;;;0.35;0.35;;;;;;;;;;5084528;28;20164;-65
2024/04/05 12:23:26;;;;;;;0.85;0.55;;;;;;;;;;5071267;28;20048;-64
2024/04/05 12:25:57;;;;;;;0.38;0.38;;;;;;;;;;5072144;27;20071;-70
2024/04/05 12:28:23;;;;;;;0.73;0.30;;;;;;;;;;5073203;28;20052;-65
2024/04/05 12:30:50;;;;;;;0.68;0.40;;;;;;;;;;5075887;28;20052;-64
2024/04/05 12:33:17;;;;;;;1.90;0.40;;;;;;;;;;5071258;28;20436;-63
2024/04/05 12:35:56;;;;;;;0.40;0.40;;;;;;;;;;5071704;28;20070;-62
2024/04/05 12:38:27;;;;;;;1.23;0.40;;;;;;;;;;5072422;28;20118;-63
2024/04/05 12:40:55;;;;;;;0.70;0.45;;;;;;;;;;5074033;28;20067;-63
2024/04/05 12:43:21;;;;;;;0.77;0.40;;;;;;;;;;5079125;28;20052;-63
2024/04/05 12:45:58;;;;;;;2.97;1.15;;;;;;;;;;5072425;28;20049;-65
2024/04/05 12:48:25;;;;;;;0.47;0.45;;;;;;;;;;5073338;28;20123;-65
2024/04/05 12:50:58;;;;;;;0.82;0.40;;;;;;;;;;5073031;28;20057;-65
2024/04/05 12:53:25;;;;;;;0.57;0.40;;;;;;;;;;5075376;28;20448;-61
2024/04/05 12:55:54;;;;;;;0.82;0.40;;;;;;;;;;5071682;28;20387;-61
2024/04/05 12:58:21;;;;;;;0.50;0.38;;;;;;;;;;5076688;28;20048;-65
2024/04/05 13:00:48;;;;;;;0.60;0.40;;;;;;;;;;5075276;28;20492;-65
2024/04/05 13:03:15;;;;;;;0.30;0.30;;;;;;;;;;5073225;28;20101;-63
2024/04/05 13:05:42;;;;;;;0.85;0.40;;;;;;;;;;5071980;27;20048;-62
2024/04/05 13:08:10;;;;;;;1.38;0.40;;;;;;;;;;5075423;28;20048;-63
2024/04/05 13:10:37;;;;;;;0.77;0.40;;;;;;;;;;5070745;28;20052;-64
2024/04/05 13:13:04;;;;;;;0.73;0.50;;;;;;;;;;5075593;28;20056;-64
2024/04/05 13:15:35;;;;;;;1.58;0.50;;;;;;;;;;5073109;28;20040;-62
2024/04/05 13:18:01;;;;;;;0.30;0.30;;;;;;;;;;5077911;28;20040;-62
2024/04/05 13:20:29;;;;;;;0.85;0.40;;;;;;;;;;5080238;28;20416;-61
2024/04/05 13:22:55;;;;;;;0.40;0.40;;;;;;;;;;5079330;28;20053;-61
2024/04/05 13:25:24;;;;;;;0.68;0.40;;;;;;;;;;5075745;28;20056;-64
2024/04/05 13:27:51;;;;;;;0.60;0.50;;;;;;;;;;5074070;28;20093;-65
2024/04/05 13:30:18;;;;;;;2.38;0.40;;;;;;;;;;5075675;28;20044;-66
2024/04/05 13:32:45;;;;;;;1.02;0.40;;;;;;;;;;5073712;28;20099;-65
2024/04/05 13:35:12;;;;;;;1.05;0.50;;;;;;;;;;5070984;28;20048;-63
2024/04/05 13:37:39;;;;;;;0.45;0.30;;;;;;;;;;5079363;28;20048;-65
2024/04/05 13:40:07;;;;;;;0.30;0.30;;;;;;;;;;5079875;28;20090;-66
2024/04/05 13:42:35;;;;;;;0.70;0.35;;;;;;;;;;5072157;28;20097;-64
2024/04/05 13:45:04;;;;;;;0.70;0.47;;;;;;;;;;5070063;28;20055;-61
2024/04/05 13:47:30;;;;;;;1.02;0.40;;;;;;;;;;5071054;28;20052;-60
2024/04/05 13:49:58;;;;;;;0.35;0.35;;;;;;;;;;5069939;28;20059;-64
2024/04/05 13:52:24;;;;;;;0.30;0.30;;;;;;;;;;5071547;28;20052;-61
2024/04/05 13:54:51;;;;;;;1.45;0.43;;;;;;;;;;5068330;28;20049;-68
2024/04/05 13:57:18;;;;;;;0.75;0.40;;;;;;;;;;5073809;28;20052;-61
2024/04/05 13:59:46;;;;;;;0.45;0.43;;;;;;;;;;5076792;28;20060;-61
2024/04/05 14:02:14;;;;;;;0.43;0.30;;;;;;;;;;5072483;28;20098;-64
2024/04/05 14:04:44;;;;;;;0.30;0.30;;;;;;;;;;5081515;28;20064;-61
2024/04/05 14:07:10;;;;;;;0.73;0.55;;;;;;;;;;5067026;28;20044;-64
2024/04/05 14:09:39;;;;;;;0.85;0.43;;;;;;;;;;5070288;28;20078;-64
2024/04/05 14:12:05;;;;;;;0.50;0.30;;;;;;;;;;5063084;28;20060;-60
2024/04/05 14:14:33;;;;;;;0.60;0.40;;;;;;;;;;5068061;28;20546;-69
2024/04/05 14:17:01;;;;;;;1.38;0.95;;;;;;;;;;5072505;28;20443;-63
2024/04/05 14:19:28;;;;;;;1.17;0.40;;;;;;;;;;5071334;28;20061;-63
2024/04/05 14:21:55;;;;;;;0.40;0.40;;;;;;;;;;5076879;28;20386;-63
2024/04/05 14:24:22;;;;;;;0.40;0.38;;;;;;;;;;5068479;28;20110;-62
2024/04/05 14:26:49;;;;;;;1.33;0.38;;;;;;;;;;5068404;28;20041;-61
2024/04/05 14:29:16;;;;;;;0.73;0.55;;;;;;;;;;5068246;28;20421;-63
2024/04/05 14:31:43;;;;;;;1.45;0.30;;;;;;;;;;5068991;28;20102;-65
2024/04/05 14:34:13;;;;;;;1.27;0.40;;;;;;;;;;5067242;28;20656;-63
2024/04/05 14:36:42;;;;;;;1.17;0.52;;;;;;;;;;5067854;28;20082;-61
2024/04/05 14:39:09;;;;;;;0.30;0.30;;;;;;;;;;5068170;28;20052;-65
2024/04/05 14:41:36;;;;;;;0.63;0.40;;;;;;;;;;5067946;28;20048;-62
2024/04/05 14:44:04;;;;;;;0.30;0.30;;;;;;;;;;5071489;28;20048;-63
2024/04/05 14:46:30;;;;;;;0.40;0.40;;;;;;;;;;5070472;28;20052;-65